sensor_id;sensor_type;location;lat;lon;timestamp;temperature;humidity
82351;SHT30;71951;39.366;22.950;2023-12-20T08:18:27;10;67
82351;SHT30;71951;39.366;22.950;2023-12-20T08:25:50;11;61
82351;SHT30;71951;39.366;22.950;2023-12-20T08:29:44;12;58
82351;SHT30;71951;39.366;22.950;2023-12-20T08:33:11;13;57
82351;SHT30;71951;39.366;22.950;2023-12-20T08:40:33;14;55
82351;SHT30;71951;39.366;22.950;2023-12-20T08:44:00;14;54
82351;SHT30;71951;39.366;22.950;2023-12-20T08:47:26;14;54
82351;SHT30;71951;39.366;22.950;2023-12-20T08:50:53;15;54
82351;SHT30;71951;39.366;22.950;2023-12-20T08:54:19;15;53
82351;SHT30;71951;39.366;22.950;2023-12-20T08:57:46;15;52
82351;SHT30;71951;39.366;22.950;2023-12-20T09:01:14;15;52
82351;SHT30;71951;39.366;22.950;2023-12-20T09:04:40;15;51
82351;SHT30;71951;39.366;22.950;2023-12-20T09:08:07;16;51
82351;SHT30;71951;39.366;22.950;2023-12-20T09:11:34;16;49
82351;SHT30;71951;39.366;22.950;2023-12-20T09:15:01;16;49
82351;SHT30;71951;39.366;22.950;2023-12-20T09:18:28;16;49
82351;SHT30;71951;39.366;22.950;2023-12-20T09:21:54;16;48
82351;SHT30;71951;39.366;22.950;2023-12-20T09:25:21;17;47
82351;SHT30;71951;39.366;22.950;2023-12-20T09:32:44;17;47
82351;SHT30;71951;39.366;22.950;2023-12-20T09:44:03;17;46
82351;SHT30;71951;39.366;22.950;2023-12-20T09:47:29;18;46
82351;SHT30;71951;39.366;22.950;2023-12-20T09:50:56;18;46
82351;SHT30;71951;39.366;22.950;2023-12-20T09:54:23;18;46
82351;SHT30;71951;39.366;22.950;2023-12-20T09:57:50;18;46
82351;SHT30;71951;39.366;22.950;2023-12-20T10:01:17;18;46
82351;SHT30;71951;39.366;22.950;2023-12-20T10:04:47;18;46
82351;SHT30;71951;39.366;22.950;2023-12-20T10:08:13;18;46
82351;SHT30;71951;39.366;22.950;2023-12-20T10:11:40;18;46
82351;SHT30;71951;39.366;22.950;2023-12-20T10:19:02;18;45
82351;SHT30;71951;39.366;22.950;2023-12-20T10:22:29;18;44
82351;SHT30;71951;39.366;22.950;2023-12-20T10:25:57;18;45
82351;SHT30;71951;39.366;22.950;2023-12-20T10:29:24;18;44
82351;SHT30;71951;39.366;22.950;2023-12-20T10:36:46;18;45
82351;SHT30;71951;39.366;22.950;2023-12-20T10:40:13;19;44
82351;SHT30;71951;39.366;22.950;2023-12-20T10:43:40;19;44
82351;SHT30;71951;39.366;22.950;2023-12-20T10:47:08;19;44
82351;SHT30;71951;39.366;22.950;2023-12-20T10:50:36;19;44
82351;SHT30;71951;39.366;22.950;2023-12-20T10:54:04;19;44
82351;SHT30;71951;39.366;22.950;2023-12-20T10:57:30;19;44
82351;SHT30;71951;39.366;22.950;2023-12-20T11:01:00;19;45
82351;SHT30;71951;39.366;22.950;2023-12-20T11:04:34;19;45
82351;SHT30;71951;39.366;22.950;2023-12-20T11:08:08;19;46
82351;SHT30;71951;39.366;22.950;2023-12-20T11:11:41;19;47
82351;SHT30;71951;39.366;22.950;2023-12-20T11:15:08;18;47
82351;SHT30;71951;39.366;22.950;2023-12-20T11:18:35;18;48
82351;SHT30;71951;39.366;22.950;2023-12-20T11:22:03;18;49
82351;SHT30;71951;39.366;22.950;2023-12-20T11:25:30;18;49
82351;SHT30;71951;39.366;22.950;2023-12-20T11:32:51;18;49
82351;SHT30;71951;39.366;22.950;2023-12-20T11:36:18;18;49
82351;SHT30;71951;39.366;22.950;2023-12-20T11:39:45;18;50
82351;SHT30;71951;39.366;22.950;2023-12-20T11:43:12;17;50
82351;SHT30;71951;39.366;22.950;2023-12-20T11:46:55;17;50
82351;SHT30;71951;39.366;22.950;2023-12-20T11:50:22;17;51
82351;SHT30;71951;39.366;22.950;2023-12-20T11:53:52;17;51
82351;SHT30;71951;39.366;22.950;2023-12-20T11:57:18;17;52
82351;SHT30;71951;39.366;22.950;2023-12-20T12:00:45;17;52
82351;SHT30;71951;39.366;22.950;2023-12-20T12:04:12;17;53
82351;SHT30;71951;39.366;22.950;2023-12-20T12:07:38;17;53
82351;SHT30;71951;39.366;22.950;2023-12-20T12:11:05;17;53
82351;SHT30;71951;39.366;22.950;2023-12-20T12:14:32;17;53
82351;SHT30;71951;39.366;22.950;2023-12-20T12:17:58;17;53
82351;SHT30;71951;39.366;22.950;2023-12-20T12:21:25;17;53
82351;SHT30;71951;39.366;22.950;2023-12-20T12:24:52;16;54
82351;SHT30;71951;39.366;22.950;2023-12-20T12:28:18;16;54
82351;SHT30;71951;39.366;22.950;2023-12-20T12:31:45;16;54
82351;SHT30;71951;39.366;22.950;2023-12-20T12:35:14;16;54
82351;SHT30;71951;39.366;22.950;2023-12-20T12:38:41;16;54
82351;SHT30;71951;39.366;22.950;2023-12-20T12:42:07;16;54
82351;SHT30;71951;39.366;22.950;2023-12-20T12:45:34;16;54
82351;SHT30;71951;39.366;22.950;2023-12-20T12:49:01;16;54
82351;SHT30;71951;39.366;22.950;2023-12-20T12:52:27;16;55
82351;SHT30;71951;39.366;22.950;2023-12-20T12:55:54;16;55
82351;SHT30;71951;39.366;22.950;2023-12-20T12:59:20;16;55
82351;SHT30;71951;39.366;22.950;2023-12-20T13:02:47;15;55
82351;SHT30;71951;39.366;22.950;2023-12-20T13:06:15;15;55
82351;SHT30;71951;39.366;22.950;2023-12-20T13:09:41;15;55
82351;SHT30;71951;39.366;22.950;2023-12-20T13:13:08;15;55
82351;SHT30;71951;39.366;22.950;2023-12-20T13:16:35;15;56
82351;SHT30;71951;39.366;22.950;2023-12-20T13:20:02;15;55
82351;SHT30;71951;39.366;22.950;2023-12-20T13:23:29;15;55
82351;SHT30;71951;39.366;22.950;2023-12-20T13:26:56;15;55
82351;SHT30;71951;39.366;22.950;2023-12-20T13:30:22;15;55
82351;SHT30;71951;39.366;22.950;2023-12-20T13:33:48;15;55
82351;SHT30;71951;39.366;22.950;2023-12-20T13:37:15;15;55
82351;SHT30;71951;39.366;22.950;2023-12-20T13:40:42;15;56
82351;SHT30;71951;39.366;22.950;2023-12-20T13:44:08;15;56
82351;SHT30;71951;39.366;22.950;2023-12-20T13:47:35;15;56
82351;SHT30;71951;39.366;22.950;2023-12-20T13:51:02;15;56
82351;SHT30;71951;39.366;22.950;2023-12-20T13:54:28;15;56
82351;SHT30;71951;39.366;22.950;2023-12-20T13:57:55;15;57
82351;SHT30;71951;39.366;22.950;2023-12-20T14:01:23;15;57
82351;SHT30;71951;39.366;22.950;2023-12-20T14:04:49;15;57
82351;SHT30;71951;39.366;22.950;2023-12-20T14:08:16;15;57
82351;SHT30;71951;39.366;22.950;2023-12-20T14:11:43;15;57
82351;SHT30;71951;39.366;22.950;2023-12-20T14:15:09;15;57
82351;SHT30;71951;39.366;22.950;2023-12-20T14:18:38;15;57
82351;SHT30;71951;39.366;22.950;2023-12-20T14:22:05;15;57
82351;SHT30;71951;39.366;22.950;2023-12-20T14:25:31;15;58
82351;SHT30;71951;39.366;22.950;2023-12-20T14:28:58;15;58
82351;SHT30;71951;39.366;22.950;2023-12-20T14:32:24;15;58
82351;SHT30;71951;39.366;22.950;2023-12-20T14:35:51;15;58
82351;SHT30;71951;39.366;22.950;2023-12-20T14:39:18;15;58
82351;SHT30;71951;39.366;22.950;2023-12-20T14:42:45;14;58
82351;SHT30;71951;39.366;22.950;2023-12-20T14:46:11;14;58
82351;SHT30;71951;39.366;22.950;2023-12-20T14:49:38;14;58
82351;SHT30;71951;39.366;22.950;2023-12-20T14:53:05;14;58
82351;SHT30;71951;39.366;22.950;2023-12-20T14:56:31;14;58
82351;SHT30;71951;39.366;22.950;2023-12-20T14:59:59;14;58
82351;SHT30;71951;39.366;22.950;2023-12-20T15:03:26;14;58
82351;SHT30;71951;39.366;22.950;2023-12-20T15:06:52;14;59
82351;SHT30;71951;39.366;22.950;2023-12-20T15:10:19;14;59
82351;SHT30;71951;39.366;22.950;2023-12-20T15:13:46;14;59
82351;SHT30;71951;39.366;22.950;2023-12-20T15:17:12;14;59
82351;SHT30;71951;39.366;22.950;2023-12-20T15:20:39;14;60
82351;SHT30;71951;39.366;22.950;2023-12-20T15:24:06;14;60
82351;SHT30;71951;39.366;22.950;2023-12-20T15:27:32;14;60
82351;SHT30;71951;39.366;22.950;2023-12-20T15:31:00;14;60
82351;SHT30;71951;39.366;22.950;2023-12-20T15:34:27;14;60
82351;SHT30;71951;39.366;22.950;2023-12-20T15:37:54;14;60
82351;SHT30;71951;39.366;22.950;2023-12-20T15:41:22;14;60
82351;SHT30;71951;39.366;22.950;2023-12-20T15:44:49;14;60
82351;SHT30;71951;39.366;22.950;2023-12-20T15:48:15;14;61
82351;SHT30;71951;39.366;22.950;2023-12-20T15:51:42;14;61
82351;SHT30;71951;39.366;22.950;2023-12-20T15:55:09;14;61
82351;SHT30;71951;39.366;22.950;2023-12-20T15:58:35;14;61
82351;SHT30;71951;39.366;22.950;2023-12-20T16:02:02;14;61
82351;SHT30;71951;39.366;22.950;2023-12-20T16:05:29;14;62
82351;SHT30;71951;39.366;22.950;2023-12-20T16:08:56;14;62
82351;SHT30;71951;39.366;22.950;2023-12-20T16:12:22;14;62
82351;SHT30;71951;39.366;22.950;2023-12-20T16:15:49;14;62
82351;SHT30;71951;39.366;22.950;2023-12-20T16:19:15;14;62
82351;SHT30;71951;39.366;22.950;2023-12-20T16:22:42;14;62
82351;SHT30;71951;39.366;22.950;2023-12-20T16:26:11;14;62
82351;SHT30;71951;39.366;22.950;2023-12-20T16:29:38;14;62
82351;SHT30;71951;39.366;22.950;2023-12-20T16:33:05;14;62
82351;SHT30;71951;39.366;22.950;2023-12-20T16:36:48;14;63
82351;SHT30;71951;39.366;22.950;2023-12-20T16:40:15;14;63
82351;SHT30;71951;39.366;22.950;2023-12-20T16:43:42;14;63
82351;SHT30;71951;39.366;22.950;2023-12-20T16:47:09;14;63
82351;SHT30;71951;39.366;22.950;2023-12-20T16:50:36;14;64
82351;SHT30;71951;39.366;22.950;2023-12-20T16:54:02;14;64
82351;SHT30;71951;39.366;22.950;2023-12-20T16:57:29;14;64
82351;SHT30;71951;39.366;22.950;2023-12-20T17:00:55;14;64
82351;SHT30;71951;39.366;22.950;2023-12-20T17:04:22;14;64
82351;SHT30;71951;39.366;22.950;2023-12-20T17:07:49;14;64
82351;SHT30;71951;39.366;22.950;2023-12-20T17:11:15;13;64
82351;SHT30;71951;39.366;22.950;2023-12-20T17:14:42;13;64
